Time;durP1;ratioP1;P1;durP2;ratioP2;P2;SDS_P1;SDS_P2;PMS_P1;PMS_P2;Temp;Humidity;BMP_temperature;BMP_pressure;BME280_temperature;BME280_humidity;BME280_pressure;Samples;Min_cycle;Max_cycle;Signal;HPM_P1;HPM_P2
2021/06/28 00:01:16;;;;;;;14.02;9.05;;;;;;;18.45;100.00;97115.31;5043448;28;20121;-62
2021/06/28 00:03:44;;;;;;;15.70;9.25;;;;;;;18.48;100.00;97098.44;5043939;28;20134;-61
2021/06/28 00:06:09;;;;;;;13.45;8.30;;;;;;;18.41;100.00;97114.56;5045179;28;20032;-60
2021/06/28 00:08:37;;;;;;;12.27;8.68;;;;;;;18.38;100.00;97116.22;5043546;28;20040;-63
2021/06/28 00:11:04;;;;;;;13.85;8.35;;;;;;;18.37;100.00;97120.19;5043930;28;20103;-61
2021/06/28 00:13:30;;;;;;;16.83;8.75;;;;;;;18.33;100.00;97107.44;5043448;28;20116;-61
2021/06/28 00:15:55;;;;;;;14.70;8.75;;;;;;;18.33;100.00;97119.44;5043459;28;20155;-64
2021/06/28 00:18:21;;;;;;;14.75;9.35;;;;;;;17.99;100.00;97068.97;5045492;28;20033;-62
2021/06/28 00:20:48;;;;;;;18.17;9.77;;;;;;;18.43;100.00;97107.31;5043170;28;20036;-61
2021/06/28 00:23:13;;;;;;;15.45;9.40;;;;;;;18.42;100.00;97105.72;5043479;28;20043;-61
2021/06/28 00:25:39;;;;;;;17.35;8.68;;;;;;;18.44;100.00;97108.91;5045308;28;20033;-63
2021/06/28 00:28:06;;;;;;;13.95;8.23;;;;;;;18.48;99.00;97109.66;5045574;28;20060;-61
2021/06/28 00:30:39;;;;;;;19.35;8.90;;;;;;;18.47;99.60;97164.19;5043166;28;20028;-61
2021/06/28 00:33:06;;;;;;;11.88;8.82;;;;;;;18.19;100.00;97085.16;5045435;28;20592;-61
2021/06/28 00:35:32;;;;;;;11.23;8.48;;;;;;;17.71;100.00;97015.25;5043094;28;20044;-61
2021/06/28 00:37:57;;;;;;;19.60;8.63;;;;;;;18.32;100.00;97111.47;5043848;28;20045;-61
2021/06/28 00:40:23;;;;;;;11.23;8.90;;;;;;;18.28;99.33;97108.69;5043447;28;20029;-62
2021/06/28 00:42:49;;;;;;;13.20;9.07;;;;;;;17.97;100.00;97056.59;5045436;28;20116;-63
2021/06/28 00:45:14;;;;;;;14.30;8.75;;;;;;;18.24;100.00;97102.31;5045218;28;20033;-61
2021/06/28 00:47:40;;;;;;;13.40;8.38;;;;;;;17.83;100.00;97040.72;5042578;28;20530;-62
2021/06/28 00:50:06;;;;;;;15.50;8.40;;;;;;;16.10;100.00;96766.63;5043622;28;20029;-61
2021/06/28 00:52:32;;;;;;;16.52;8.82;;;;;;;17.74;100.00;97020.81;5043731;28;20135;-61
2021/06/28 00:54:58;;;;;;;12.38;8.25;;;;;;;18.17;99.50;97105.22;5042571;28;20025;-62
2021/06/28 00:57:23;;;;;;;15.27;8.85;;;;;;;15.85;99.50;96752.06;5041278;28;20100;-64
2021/06/28 00:59:50;;;;;;;19.60;8.55;;;;;;;18.08;100.00;97104.94;5043421;28;20623;-61
2021/06/28 01:02:15;;;;;;;17.52;8.13;;;;;;;18.10;100.00;97105.28;5042726;28;20079;-64
2021/06/28 01:04:41;;;;;;;12.98;9.10;;;;;;;18.12;100.00;97105.66;5043409;28;20115;-61
2021/06/28 01:07:06;;;;;;;14.55;8.90;;;;;;;17.90;100.00;97073.47;5043258;28;20679;-62
2021/06/28 01:09:32;;;;;;;12.05;8.60;;;;;;;17.63;100.00;97036.16;5043384;28;20041;-64
2021/06/28 01:11:57;;;;;;;12.43;9.05;;;;;;;18.04;100.00;97106.97;5041415;28;20049;-62
2021/06/28 01:14:23;;;;;;;14.88;7.85;;;;;;;18.03;100.00;97102.56;5041707;28;20086;-61
2021/06/28 01:16:48;;;;;;;11.40;7.82;;;;;;;17.93;100.00;97067.84;5041223;28;20503;-64
2021/06/28 01:19:15;;;;;;;16.73;8.77;;;;;;;18.12;100.00;97102.88;5043282;28;20024;-61
2021/06/28 01:21:42;;;;;;;12.27;8.55;;;;;;;18.11;100.00;97101.28;5043147;28;20041;-63
2021/06/28 01:24:08;;;;;;;13.85;9.52;;;;;;;18.05;100.00;97102.97;5044235;28;20039;-63
2021/06/28 01:26:35;;;;;;;12.35;8.75;;;;;;;17.98;100.00;97098.22;5043470;28;20044;-64
2021/06/28 01:29:00;;;;;;;16.58;9.18;;;;;;;17.99;100.00;97105.41;5042206;28;20039;-62
2021/06/28 01:31:26;;;;;;;14.75;8.40;;;;;;;17.52;100.00;97046.66;5042130;28;20056;-62
2021/06/28 01:33:51;;;;;;;17.15;9.27;;;;;;;18.06;100.00;97098.94;5043967;28;20107;-63
2021/06/28 01:36:16;;;;;;;15.23;8.05;;;;;;;18.03;99.36;97099.78;5042202;28;20029;-62
2021/06/28 01:38:42;;;;;;;13.93;9.23;;;;;;;17.88;99.67;97078.69;5044109;28;20417;-61
2021/06/28 01:41:07;;;;;;;11.20;8.75;;;;;;;17.92;99.57;97093.50;5040632;28;20507;-61
2021/06/28 01:43:33;;;;;;;16.63;9.02;;;;;;;17.69;99.90;97051.28;5043780;28;20051;-62
2021/06/28 01:45:58;;;;;;;12.27;8.25;;;;;;;18.01;98.19;97096.59;5042018;28;20112;-62
2021/06/28 01:48:24;;;;;;;13.65;8.10;;;;;;;17.60;98.38;97026.59;5043863;28;20090;-64
2021/06/28 01:50:51;;;;;;;14.45;8.23;;;;;;;17.94;98.77;97103.06;5043829;28;20035;-62
2021/06/28 01:53:16;;;;;;;16.08;8.73;;;;;;;17.92;99.17;97099.09;5044319;28;20467;-62
2021/06/28 01:55:42;;;;;;;14.70;8.38;;;;;;;17.92;98.98;97099.09;5043510;28;20123;-61
2021/06/28 01:58:11;;;;;;;17.88;8.95;;;;;;;17.15;98.00;97049.41;5042317;28;20058;-62
2021/06/28 02:00:44;;;;;;;14.55;8.73;;;;;;;17.78;99.00;97110.47;5043728;28;20060;-63
2021/06/28 02:03:16;;;;;;;11.90;8.60;;;;;;;17.75;99.30;97106.47;5041289;28;20051;-61
2021/06/28 02:05:48;;;;;;;15.35;8.73;;;;;;;17.76;99.15;97101.66;5041516;28;20102;-62
2021/06/28 02:08:16;;;;;;;12.77;7.75;;;;;;;17.62;99.49;97085.00;5043900;28;20036;-62
2021/06/28 02:10:46;;;;;;;14.20;8.48;;;;;;;17.73;99.81;97091.28;5043128;28;20044;-62
2021/06/28 02:13:12;;;;;;;13.35;9.00;;;;;;;17.56;99.73;97075.47;5043762;28;20115;-62
2021/06/28 02:15:37;;;;;;;21.08;8.65;;;;;;;17.72;99.88;97096.09;5021697;28;20583;-64
2021/06/28 02:18:03;;;;;;;12.43;8.20;;;;;;;17.63;99.70;97080.97;5023931;28;20040;-62
2021/06/28 02:20:29;;;;;;;12.93;9.02;;;;;;;17.67;100.00;97090.16;5021541;28;20029;-62
2021/06/28 02:23:21;;;;;;;12.35;8.60;;;;;;;17.69;100.00;97101.72;5023726;28;20566;-62
2021/06/28 02:25:57;;;;;;;11.55;8.23;;;;;;;17.57;100.00;97074.25;5023098;28;20132;-63
2021/06/28 02:28:24;;;;;;;11.52;9.10;;;;;;;17.44;100.00;97050.72;5023865;28;20378;-62
2021/06/28 02:30:49;;;;;;;15.77;9.15;;;;;;;17.66;100.00;97097.75;5021489;28;20125;-63
2021/06/28 02:33:15;;;;;;;14.68;9.40;;;;;;;17.40;100.00;97067.53;5023524;28;20185;-61
2021/06/28 02:35:40;;;;;;;19.60;9.75;;;;;;;17.60;100.00;97081.81;5021626;28;20033;-61
2021/06/28 02:38:06;;;;;;;9.52;8.02;;;;;;;17.62;100.00;97087.78;5021581;28;20033;-61
2021/06/28 02:40:32;;;;;;;18.88;9.05;;;;;;;17.39;100.00;97071.56;5021630;28;20420;-62
2021/06/28 02:42:57;;;;;;;14.43;9.70;;;;;;;17.32;100.00;97045.66;5023470;28;20037;-62
2021/06/28 02:45:23;;;;;;;14.60;9.65;;;;;;;17.62;100.00;97091.41;5022701;28;20064;-63
2021/06/28 02:47:48;;;;;;;16.15;10.35;;;;;;;17.52;100.00;97074.69;5023317;28;20032;-61
2021/06/28 02:50:14;;;;;;;18.50;8.55;;;;;;;17.68;100.00;97094.53;5022955;28;20034;-61
2021/06/28 02:52:43;;;;;;;16.45;9.40;;;;;;;17.71;100.00;97100.09;5023119;28;20036;-62
2021/06/28 02:55:10;;;;;;;13.35;8.73;;;;;;;17.63;100.00;97103.38;5022790;28;20065;-61
2021/06/28 02:57:36;;;;;;;15.38;9.70;;;;;;;17.63;100.00;97111.78;5021678;28;20515;-62
2021/06/28 03:00:10;;;;;;;15.18;8.13;;;;;;;17.67;100.00;97115.38;5023647;28;20034;-62
2021/06/28 03:02:36;;;;;;;13.70;8.60;;;;;;;17.33;99.66;97078.84;5023931;28;20260;-62
2021/06/28 03:05:04;;;;;;;19.83;9.75;;;;;;;17.67;100.00;97126.56;5022997;28;20084;-64
2021/06/28 03:07:30;;;;;;;15.23;8.27;;;;;;;17.75;99.40;97134.47;5022666;28;20037;-61
2021/06/28 03:09:55;;;;;;;13.35;7.93;;;;;;;17.79;98.70;97121.25;5022063;28;20049;-61
2021/06/28 03:12:21;;;;;;;11.85;7.50;;;;;;;17.84;99.81;97125.59;5022657;28;20449;-61
2021/06/28 03:14:46;;;;;;;15.43;8.98;;;;;;;17.83;100.00;97124.78;5038376;28;20037;-61
2021/06/28 03:17:11;;;;;;;12.05;8.25;;;;;;;17.74;100.00;97109.69;5046401;28;20029;-63
2021/06/28 03:19:37;;;;;;;15.45;9.00;;;;;;;17.84;100.00;97115.19;5045403;28;20037;-62
2021/06/28 03:22:03;;;;;;;13.88;7.80;;;;;;;17.79;98.61;97095.22;5044872;28;20419;-61
2021/06/28 03:24:28;;;;;;;12.57;8.30;;;;;;;17.94;99.07;97124.72;5046305;28;20050;-62
2021/06/28 03:26:53;;;;;;;11.40;8.02;;;;;;;17.71;99.99;97093.69;5046083;28;20526;-61
2021/06/28 03:29:19;;;;;;;12.52;7.72;;;;;;;17.69;98.32;97079.31;5044896;28;20103;-62
2021/06/28 03:31:44;;;;;;;10.50;7.93;;;;;;;17.24;97.80;96988.13;5044595;28;20079;-63
2021/06/28 03:34:10;;;;;;;11.77;7.40;;;;;;;18.19;97.76;97119.63;5046230;28;20779;-62
2021/06/28 03:36:35;;;;;;;13.77;7.63;;;;;;;18.15;96.65;97113.25;5044369;28;20123;-61
2021/06/28 03:39:01;;;;;;;12.70;7.63;;;;;;;18.27;96.46;97126.75;5046627;28;20025;-63
2021/06/28 03:41:26;;;;;;;13.50;8.25;;;;;;;18.23;97.32;97127.97;5045834;28;20122;-61
2021/06/28 03:43:52;;;;;;;10.85;7.30;;;;;;;18.43;96.38;97123.38;5044601;28;20032;-61
2021/06/28 03:46:17;;;;;;;10.25;7.55;;;;;;;18.48;96.05;97115.25;5045473;28;20029;-64
2021/06/28 03:48:42;;;;;;;12.35;8.13;;;;;;;18.52;96.70;97116.03;5045973;28;20031;-62
2021/06/28 03:51:08;;;;;;;10.40;7.65;;;;;;;18.63;94.93;97122.31;5044246;28;20414;-62
2021/06/28 03:53:34;;;;;;;11.23;7.75;;;;;;;18.72;93.92;97119.75;5045595;28;20029;-62
2021/06/28 03:56:06;;;;;;;9.93;7.47;;;;;;;18.84;94.01;97121.22;5043962;28;20033;-62
2021/06/28 03:58:36;;;;;;;13.63;9.23;;;;;;;19.02;91.82;97122.53;5044803;28;20148;-60
2021/06/28 04:01:02;;;;;;;11.98;7.88;;;;;;;18.93;92.45;97101.81;5044110;28;20037;-60
2021/06/28 04:03:29;;;;;;;13.95;7.97;;;;;;;18.92;91.30;97078.56;5043912;28;20420;-62
2021/06/28 04:05:55;;;;;;;16.23;7.60;;;;;;;19.47;90.20;97121.03;5043732;28;20029;-61
2021/06/28 04:08:21;;;;;;;14.23;7.32;;;;;;;19.41;90.19;97108.69;5045767;28;20029;-62
2021/06/28 04:10:46;;;;;;;10.43;7.78;;;;;;;19.13;88.41;97026.88;5043370;28;20029;-61
2021/06/28 04:13:11;;;;;;;12.15;7.22;;;;;;;19.55;87.54;97077.56;5045394;28;20586;-62
2021/06/28 04:15:37;;;;;;;12.45;7.13;;;;;;;20.04;87.19;97125.69;5044897;28;20033;-61
2021/06/28 04:18:03;;;;;;;13.60;7.53;;;;;;;19.64;85.82;97056.53;5044168;28;20466;-63
2021/06/28 04:20:28;;;;;;;14.23;7.80;;;;;;;20.09;86.38;97133.63;5045234;28;20322;-61
2021/06/28 04:22:54;;;;;;;14.55;7.65;;;;;;;20.18;85.20;97108.56;5043770;28;20498;-62
2021/06/28 04:25:21;;;;;;;14.30;8.02;;;;;;;20.43;85.03;97126.53;5043932;28;20049;-61
2021/06/28 04:27:47;;;;;;;13.60;8.07;;;;;;;20.54;85.23;97121.47;5043692;28;20414;-62
2021/06/28 04:30:15;;;;;;;12.50;8.57;;;;;;;20.57;85.51;97131.06;5045089;28;20036;-63
2021/06/28 04:32:40;;;;;;;12.55;7.97;;;;;;;20.63;85.29;97123.69;5043608;28;20032;-63
2021/06/28 04:35:09;;;;;;;12.15;7.78;;;;;;;20.38;83.73;97053.06;5045160;28;20820;-61
2021/06/28 04:37:35;;;;;;;15.18;7.82;;;;;;;20.95;83.52;97118.16;5043639;28;20115;-62
2021/06/28 04:40:01;;;;;;;13.73;9.18;;;;;;;21.04;82.57;97121.22;5045610;28;20068;-61
2021/06/28 04:42:27;;;;;;;12.00;8.80;;;;;;;20.96;81.32;97085.97;5045101;28;20483;-62
2021/06/28 04:44:52;;;;;;;12.43;8.45;;;;;;;21.19;80.27;97101.97;5043855;28;20107;-62
2021/06/28 04:47:18;;;;;;;19.25;8.82;;;;;;;21.36;80.25;97124.09;5044851;28;20037;-62
2021/06/28 04:49:43;;;;;;;10.30;7.88;;;;;;;21.42;80.21;97116.69;5045116;28;20082;-62
2021/06/28 04:52:08;;;;;;;12.70;8.57;;;;;;;21.30;79.98;97094.03;5044683;28;20470;-62
2021/06/28 04:54:34;;;;;;;13.23;7.63;;;;;;;20.00;79.56;96860.59;5045401;28;20571;-62
2021/06/28 04:56:59;;;;;;;14.90;9.00;;;;;;;21.64;79.61;97131.84;5044892;28;20029;-63
2021/06/28 04:59:25;;;;;;;11.10;7.80;;;;;;;21.82;77.89;97126.59;5043455;28;20067;-62
2021/06/28 05:01:50;;;;;;;11.73;8.10;;;;;;;22.04;77.51;97126.81;5044702;28;20090;-62
2021/06/28 05:04:16;;;;;;;16.75;8.45;;;;;;;21.96;75.85;97095.19;5043285;28;20493;-62
2021/06/28 05:06:41;;;;;;;11.15;8.57;;;;;;;21.62;74.99;97021.53;5042746;28;20808;-61
2021/06/28 05:09:08;;;;;;;11.38;8.27;;;;;;;22.52;73.95;97120.28;5044526;28;20573;-61
2021/06/28 05:11:35;;;;;;;16.27;8.45;;;;;;;22.63;73.45;97124.38;5043971;28;20152;-63
2021/06/28 05:14:01;;;;;;;17.27;8.70;;;;;;;22.83;72.97;97121.34;5042855;28;20464;-62
2021/06/28 05:16:26;;;;;;;15.70;9.07;;;;;;;22.78;72.72;97102.16;5042424;28;20127;-62
2021/06/28 05:18:51;;;;;;;15.77;9.00;;;;;;;22.99;74.24;97135.41;5044164;28;20510;-63
2021/06/28 05:21:20;;;;;;;13.82;8.65;;;;;;;23.19;74.19;97133.19;5042131;28;20028;-62
2021/06/28 05:23:45;;;;;;;15.77;9.60;;;;;;;23.30;73.06;97133.66;5044396;28;20037;-62
2021/06/28 05:26:11;;;;;;;12.15;8.88;;;;;;;23.42;74.34;97135.69;5043672;28;20112;-62
2021/06/28 05:28:36;;;;;;;17.33;8.80;;;;;;;23.52;74.26;97140.22;5042990;28;20085;-59
2021/06/28 05:31:03;;;;;;;13.18;8.40;;;;;;;23.57;74.35;97142.47;5043682;28;20033;-61
2021/06/28 05:33:28;;;;;;;11.98;8.77;;;;;;;23.05;74.31;97054.47;5044111;28;20028;-61
2021/06/28 05:35:54;;;;;;;14.68;8.57;;;;;;;23.63;74.64;97135.03;5043786;28;20094;-62
2021/06/28 05:38:19;;;;;;;17.42;9.55;;;;;;;23.80;74.49;97144.94;5043813;28;20044;-61
2021/06/28 05:40:45;;;;;;;15.63;10.10;;;;;;;23.85;74.59;97130.22;5042237;28;20048;-61
2021/06/28 05:43:10;;;;;;;12.20;8.75;;;;;;;23.61;72.63;97080.94;5044256;28;20025;-61
2021/06/28 05:45:36;;;;;;;10.45;8.70;;;;;;;23.72;73.70;97098.34;5042058;28;20048;-61
2021/06/28 05:48:01;;;;;;;13.93;9.25;;;;;;;23.76;73.15;97062.22;5044389;28;20025;-61
2021/06/28 05:50:27;;;;;;;12.13;9.60;;;;;;;23.94;72.28;97070.88;5043743;28;20128;-63
2021/06/28 05:52:52;;;;;;;15.48;9.50;;;;;;;23.88;73.20;97064.22;5042303;28;20039;-60
2021/06/28 05:55:18;;;;;;;13.80;8.77;;;;;;;24.48;73.16;97156.34;5041792;28;20479;-61
2021/06/28 05:57:43;;;;;;;10.50;8.95;;;;;;;24.46;73.95;97133.34;5043876;28;20029;-66
2021/06/28 06:00:11;;;;;;;15.13;9.48;;;;;;;24.71;73.28;97153.09;5032041;28;20090;-62
2021/06/28 06:02:37;;;;;;;17.30;9.63;;;;;;;24.16;72.16;97020.78;5043205;28;20025;-63
2021/06/28 06:05:08;;;;;;;19.52;10.10;;;;;;;24.98;71.81;97116.44;5035669;28;20459;-63
2021/06/28 06:07:37;;;;;;;19.70;10.40;;;;;;;25.29;69.90;97144.81;5023674;28;20048;-66
2021/06/28 06:10:05;;;;;;;19.17;12.25;;;;;;;25.50;68.86;97140.34;5022662;28;20041;-65
2021/06/28 06:12:31;;;;;;;14.75;9.73;;;;;;;25.65;67.11;97141.34;5023967;28;20104;-64
2021/06/28 06:14:56;;;;;;;17.67;10.38;;;;;;;25.01;71.68;97112.66;5033903;28;20404;-62
2021/06/28 06:17:22;;;;;;;11.30;9.93;;;;;;;24.90;71.61;97052.75;5041532;28;20493;-61
2021/06/28 06:19:47;;;;;;;15.38;9.98;;;;;;;25.50;68.61;97094.97;5043361;28;20045;-63
2021/06/28 06:22:13;;;;;;;13.18;9.95;;;;;;;25.03;65.30;96991.09;5041038;28;20033;-62
2021/06/28 06:24:38;;;;;;;13.32;9.52;;;;;;;26.34;64.94;97151.00;5041649;28;20068;-62
2021/06/28 06:27:06;;;;;;;13.23;9.95;;;;;;;26.15;65.69;97146.56;5043430;28;20111;-65
2021/06/28 06:29:32;;;;;;;11.07;9.20;;;;;;;24.39;63.76;96858.88;5043562;28;20032;-71
2021/06/28 06:31:57;;;;;;;14.40;9.27;;;;;;;26.50;61.56;97133.66;5043462;28;20031;-66
2021/06/28 06:34:24;;;;;;;10.02;9.23;;;;;;;26.30;60.95;97136.94;5042095;28;20033;-66
2021/06/28 06:36:50;;;;;;;12.70;9.02;;;;;;;26.28;61.85;97130.16;5043019;28;20503;-61
2021/06/28 06:39:16;;;;;;;12.07;8.77;;;;;;;26.42;63.45;97116.13;5043077;28;20029;-63
2021/06/28 06:41:41;;;;;;;10.05;9.05;;;;;;;26.64;63.33;97104.63;5040943;28;20499;-67
2021/06/28 06:44:07;;;;;;;14.02;9.30;;;;;;;27.26;61.60;97150.47;5043415;28;20161;-65
2021/06/28 06:46:32;;;;;;;9.38;8.55;;;;;;;27.52;60.20;97143.16;5041189;28;20375;-62
2021/06/28 06:48:58;;;;;;;12.90;9.13;;;;;;;27.33;59.52;97071.28;5044721;28;20518;-66
2021/06/28 06:51:23;;;;;;;10.55;9.30;;;;;;;27.78;57.12;97102.38;5044886;28;20029;-62
2021/06/28 06:53:48;;;;;;;11.18;9.10;;;;;;;28.02;54.59;97106.06;5039602;28;20095;-67
2021/06/28 06:56:14;;;;;;;11.10;8.95;;;;;;;28.25;54.52;97140.75;5026882;28;20033;-61
2021/06/28 06:58:39;;;;;;;16.27;9.10;;;;;;;27.54;52.02;97064.56;5025395;28;20041;-67
2021/06/28 07:01:09;;;;;;;9.73;7.78;;;;;;;27.81;51.56;97064.41;5026120;28;20049;-67
2021/06/28 07:03:34;;;;;;;9.75;8.50;;;;;;;28.22;51.16;97113.22;5025703;28;20439;-67
2021/06/28 07:06:00;;;;;;;10.57;8.00;;;;;;;28.60;48.88;97136.06;5025343;28;20102;-62
2021/06/28 07:08:25;;;;;;;9.10;8.35;;;;;;;28.54;50.04;97106.66;5025781;28;20040;-66
2021/06/28 07:10:51;;;;;;;11.88;8.95;;;;;;;28.92;49.70;97132.28;5025610;28;20209;-63
2021/06/28 07:13:16;;;;;;;9.10;8.50;;;;;;;29.14;48.10;97132.72;5027264;28;20037;-61
2021/06/28 07:15:42;;;;;;;9.07;8.13;;;;;;;29.26;46.54;97143.09;5041329;28;20040;-61
2021/06/28 07:18:07;;;;;;;8.63;7.68;;;;;;;29.12;42.32;97103.91;5046741;28;20476;-63
2021/06/28 07:20:33;;;;;;;7.57;7.03;;;;;;;29.51;40.07;97134.69;5046295;28;20044;-65
2021/06/28 07:22:59;;;;;;;8.00;7.50;;;;;;;29.13;39.12;97080.56;5044956;28;20145;-64
2021/06/28 07:25:25;;;;;;;7.90;7.30;;;;;;;29.26;40.36;97094.56;5046335;28;20417;-64
2021/06/28 07:27:51;;;;;;;8.75;8.00;;;;;;;29.34;40.10;97081.44;5046398;28;20036;-63
2021/06/28 07:30:19;;;;;;;8.20;7.70;;;;;;;29.79;41.97;97129.47;5046206;28;20041;-62
2021/06/28 07:32:45;;;;;;;8.00;7.35;;;;;;;29.87;39.83;97127.75;5046480;28;20032;-67
2021/06/28 07:35:11;;;;;;;9.02;8.23;;;;;;;29.79;40.17;97115.16;5044421;28;20032;-63
2021/06/28 07:37:38;;;;;;;8.50;7.90;;;;;;;29.78;40.81;97105.03;5044662;28;20040;-66
2021/06/28 07:40:05;;;;;;;8.18;7.43;;;;;;;29.90;41.14;97106.75;5045856;28;20531;-66
2021/06/28 07:42:31;;;;;;;9.13;8.32;;;;;;;29.99;40.62;97143.78;5044408;28;20120;-62
2021/06/28 07:44:56;;;;;;;10.18;8.27;;;;;;;28.98;39.48;96964.88;5046101;28;20204;-63
2021/06/28 07:47:21;;;;;;;9.32;7.82;;;;;;;29.66;41.18;97134.69;5044956;28;20030;-65
2021/06/28 07:49:47;;;;;;;8.15;7.65;;;;;;;29.42;42.73;97131.13;5045831;28;20588;-68
2021/06/28 07:52:13;;;;;;;7.65;7.20;;;;;;;29.49;41.39;97128.69;5044635;28;20025;-67
2021/06/28 07:54:41;;;;;;;8.50;7.80;;;;;;;29.53;41.52;97131.31;5044703;28;20071;-62
2021/06/28 07:57:07;;;;;;;8.38;7.78;;;;;;;29.90;41.14;97131.69;5042397;28;20480;-62
2021/06/28 07:59:32;;;;;;;8.20;7.65;;;;;;;29.80;41.08;97116.72;5045603;28;20099;-67
2021/06/28 08:01:58;;;;;;;7.65;7.15;;;;;;;29.41;39.73;97021.09;5043355;28;20029;-69
2021/06/28 08:04:27;;;;;;;7.97;7.38;;;;;;;30.12;40.59;97132.00;5039484;28;20171;-61
2021/06/28 08:06:53;;;;;;;8.32;7.80;;;;;;;30.18;41.52;97102.22;5027907;28;20056;-64
2021/06/28 08:09:18;;;;;;;8.02;6.78;;;;;;;30.04;39.84;97074.50;5030366;28;20029;-69
2021/06/28 08:11:44;;;;;;;8.52;7.85;;;;;;;30.45;38.20;97127.56;5044815;28;20048;-66
2021/06/28 08:14:10;;;;;;;7.90;7.25;;;;;;;30.57;38.50;97129.25;5045142;28;20025;-68
2021/06/28 08:16:35;;;;;;;9.32;8.55;;;;;;;30.64;37.82;97123.13;5044897;28;20043;-66
2021/06/28 08:19:01;;;;;;;8.70;8.00;;;;;;;30.44;37.57;97108.84;5045127;28;20028;-66
2021/06/28 08:21:27;;;;;;;8.73;7.88;;;;;;;30.71;37.22;97128.38;5044589;28;20093;-63
2021/06/28 08:23:52;;;;;;;10.90;9.85;;;;;;;30.61;37.50;97078.38;5045451;28;20108;-64
2021/06/28 08:26:18;;;;;;;8.35;7.72;;;;;;;31.04;37.10;97122.28;5021475;28;20121;-60
2021/06/28 08:28:45;;;;;;;7.85;7.15;;;;;;;31.10;35.18;97136.66;5045617;28;20037;-67
2021/06/28 08:31:11;;;;;;;8.07;7.47;;;;;;;31.02;34.50;97136.31;5043679;28;20035;-63
2021/06/28 08:33:37;;;;;;;7.88;7.38;;;;;;;30.79;35.58;97112.38;5043866;28;20530;-70
2021/06/28 08:36:03;;;;;;;8.30;7.70;;;;;;;29.78;36.17;96942.22;5043410;28;20033;-68
2021/06/28 08:38:29;;;;;;;8.18;7.68;;;;;;;30.72;37.94;97135.69;5045528;28;20036;-63
2021/06/28 08:40:54;;;;;;;7.97;7.43;;;;;;;30.82;36.96;97125.72;5043055;28;20507;-66
2021/06/28 08:43:20;;;;;;;8.25;7.15;;;;;;;31.04;36.66;97127.22;5045416;28;20044;-68
2021/06/28 08:45:46;;;;;;;8.90;8.07;;;;;;;30.71;36.66;97128.38;5044899;28;20116;-68
2021/06/28 08:48:11;;;;;;;8.68;8.00;;;;;;;30.37;37.34;97069.22;5044872;28;20037;-69
2021/06/28 08:50:39;;;;;;;8.32;7.63;;;;;;;30.67;35.83;97116.38;5042684;28;20634;-65
2021/06/28 08:53:07;;;;;;;7.97;7.38;;;;;;;29.69;35.60;96893.03;5043185;28;20028;-64
2021/06/28 08:55:33;;;;;;;8.52;7.78;;;;;;;30.53;36.45;97030.69;5044447;28;20037;-65
2021/06/28 08:57:59;;;;;;;8.32;7.63;;;;;;;31.26;34.77;97130.31;5044837;28;20124;-67
2021/06/28 09:00:24;;;;;;;7.90;7.35;;;;;;;30.02;33.44;96974.19;5030932;28;20042;-68
2021/06/28 09:03:01;;;;;;;8.77;7.65;;;;;;;31.22;34.02;97121.16;5024681;28;20026;-63
2021/06/28 09:05:28;;;;;;;8.40;7.47;;;;;;;30.57;33.43;97026.31;5024003;28;20103;-64
2021/06/28 09:08:10;;;;;;;9.68;8.55;;;;;;;30.66;34.73;97085.44;5022762;28;20128;-63
2021/06/28 09:10:41;;;;;;;12.00;11.07;;;;;;;29.99;34.06;97003.00;5023962;28;20120;-65
2021/06/28 09:13:07;;;;;;;8.35;7.75;;;;;;;29.24;34.57;96865.94;5022458;28;20083;-67
2021/06/28 09:15:34;;;;;;;8.25;7.65;;;;;;;30.48;35.11;97023.63;5034155;28;20423;-65
2021/06/28 09:18:24;;;;;;;7.57;7.07;;;;;;;31.30;34.29;97122.28;5044662;28;20029;-60
2021/06/28 09:21:06;;;;;;;7.65;7.05;;;;;;;31.23;34.53;97125.59;5042150;28;20048;-67
2021/06/28 09:23:32;;;;;;;8.75;7.97;;;;;;;30.61;33.58;97003.19;5042451;28;20036;-68
2021/06/28 09:25:59;;;;;;;8.45;7.78;;;;;;;31.61;34.46;97119.47;5042214;28;20037;-66
2021/06/28 09:28:34;;;;;;;8.05;7.47;;;;;;;31.81;33.44;97145.13;5042157;28;20045;-67
2021/06/28 09:31:00;;;;;;;9.20;8.35;;;;;;;32.05;32.99;97116.94;5042939;28;20029;-63
2021/06/28 09:33:26;;;;;;;8.50;7.90;;;;;;;32.08;32.75;97121.66;5043746;28;20043;-69
2021/06/28 09:35:51;;;;;;;8.23;7.57;;;;;;;31.71;32.61;97077.88;5042738;28;20044;-67
2021/06/28 09:38:37;;;;;;;9.43;8.80;;;;;;;31.46;33.09;97107.38;5042499;28;20075;-68
2021/06/28 09:41:41;;;;;;;8.88;8.18;;;;;;;30.78;34.03;97115.75;5028011;28;20052;-68
2021/06/28 09:44:07;;;;;;;;;;;;;;;31.32;33.64;97111.13;5004467;28;20100;-66
2021/06/28 09:46:35;;;;;;;8.75;8.15;;;;;;;31.64;33.94;97106.97;5020177;28;19917;-69
2021/06/28 09:49:02;;;;;;;9.35;8.57;;;;;;;31.65;34.28;97102.81;5012934;28;20112;-66
2021/06/28 09:51:33;;;;;;;7.65;7.15;;;;;;;31.73;33.65;97103.91;5023676;28;20029;-65
2021/06/28 09:54:08;;;;;;;8.55;7.85;;;;;;;32.30;34.29;97107.44;5035647;28;20033;-66
2021/06/28 09:56:45;;;;;;;8.32;7.72;;;;;;;32.15;32.41;97107.59;5042667;28;20495;-73
2021/06/28 09:59:32;;;;;;;8.23;7.63;;;;;;;32.10;33.08;97110.47;5040592;28;20492;-69
2021/06/28 10:02:29;;;;;;;8.93;8.18;;;;;;;32.66;33.22;97112.31;5021991;28;20148;-68
2021/06/28 10:05:04;;;;;;;7.85;7.35;;;;;;;33.14;32.17;97106.47;5023475;28;20060;-69
2021/06/28 10:07:32;;;;;;;8.93;7.95;;;;;;;33.34;31.72;97109.88;5021520;28;20048;-63
2021/06/28 10:10:13;;;;;;;8.73;8.20;;;;;;;33.10;31.57;97106.72;5021860;28;20037;-65
2021/06/28 10:13:00;;;;;;;9.05;8.45;;;;;;;32.84;31.00;97113.94;5023728;28;20120;-67
2021/06/28 10:15:29;;;;;;;8.65;8.15;;;;;;;32.55;31.84;97054.13;5030614;28;20518;-66
2021/06/28 10:17:55;;;;;;;8.65;7.75;;;;;;;32.49;32.22;97102.84;5043783;28;20087;-62
2021/06/28 10:20:31;;;;;;;8.57;7.97;;;;;;;32.52;31.99;97078.88;5042859;28;20076;-68
2021/06/28 10:22:56;;;;;;;7.63;7.10;;;;;;;32.76;31.61;97082.09;5043201;28;20458;-68
2021/06/28 10:25:24;;;;;;;7.78;7.15;;;;;;;32.65;31.09;97036.16;5042443;28;20163;-70
2021/06/28 10:27:50;;;;;;;8.50;8.00;;;;;;;33.13;30.86;97094.22;5041271;28;20107;-67
2021/06/28 10:30:17;;;;;;;8.68;7.97;;;;;;;33.08;30.49;97069.16;5042825;28;20029;-68
2021/06/28 10:32:45;;;;;;;8.05;7.40;;;;;;;33.37;30.22;97099.47;5043408;28;20064;-69
2021/06/28 10:35:15;;;;;;;8.32;7.70;;;;;;;33.27;30.56;97089.53;5040825;28;20052;-68
2021/06/28 10:37:46;;;;;;;7.93;7.32;;;;;;;33.42;30.10;97093.75;5042843;28;20029;-65
2021/06/28 10:40:14;;;;;;;9.57;8.95;;;;;;;33.54;30.20;97083.81;5042498;28;20041;-69
2021/06/28 10:42:46;;;;;;;9.65;9.05;;;;;;;33.63;29.98;97086.44;5043339;28;20068;-69
2021/06/28 10:45:14;;;;;;;12.38;11.10;;;;;;;33.27;29.47;97018.50;5042975;28;20111;-69
2021/06/28 10:48:01;;;;;;;8.77;8.15;;;;;;;33.78;30.13;97079.63;5041524;28;20040;-65
2021/06/28 10:51:00;;;;;;;8.25;7.78;;;;;;;34.14;29.44;97067.81;5042083;28;20127;-66
2021/06/28 10:53:31;;;;;;;8.90;8.10;;;;;;;34.59;28.46;97074.97;5042667;28;20110;-70
2021/06/28 10:55:57;;;;;;;8.88;8.18;;;;;;;34.41;28.80;97023.81;5042368;28;20040;-66
2021/06/28 10:58:31;;;;;;;8.68;7.97;;;;;;;35.19;28.49;97064.44;5042299;28;20045;-68
2021/06/28 11:00:59;;;;;;;8.02;7.53;;;;;;;35.31;26.97;97068.81;5041373;28;20124;-67
2021/06/28 11:03:26;;;;;;;9.07;8.52;;;;;;;35.12;28.06;97070.78;5042388;28;20431;-68
2021/06/28 11:06:14;;;;;;;9.15;8.35;;;;;;;35.36;27.88;97062.25;5041517;28;20033;-71
2021/06/28 11:09:06;;;;;;;8.82;8.23;;;;;;;35.21;27.38;97066.78;5043524;28;20067;-66
2021/06/28 11:11:44;;;;;;;8.80;8.15;;;;;;;35.48;27.46;97066.59;5042508;28;20509;-63
2021/06/28 11:14:31;;;;;;;8.50;8.00;;;;;;;35.34;27.08;97038.91;5041203;28;20044;-63
2021/06/28 11:17:08;;;;;;;8.95;8.43;;;;;;;35.61;26.83;97061.00;5028696;28;20547;-67
2021/06/28 11:19:48;;;;;;;9.10;8.60;;;;;;;35.65;26.59;97058.56;5021185;28;20044;-68
2021/06/28 11:22:30;;;;;;;9.40;8.80;;;;;;;35.71;27.20;97052.78;5022414;28;20033;-65
2021/06/28 11:25:09;;;;;;;9.68;8.93;;;;;;;35.54;27.34;97014.66;5023211;28;20663;-65
2021/06/28 11:27:48;;;;;;;8.95;8.35;;;;;;;36.07;26.63;97051.38;5022389;28;20131;-65
2021/06/28 11:30:13;;;;;;;8.48;8.07;;;;;;;35.65;26.47;97047.03;5022379;28;20577;-65